sensor_id;sensor_type;location;lat;lon;timestamp;P1;durP1;ratioP1;P2;durP2;ratioP2
56820;SDS011;42702;50.178;20.992;2022-10-31T00:01:31;21.30;;;13.90;;
56820;SDS011;42702;50.178;20.992;2022-10-31T00:04:02;23.60;;;13.70;;
56820;SDS011;42702;50.178;20.992;2022-10-31T00:06:31;20.40;;;12.90;;
56820;SDS011;42702;50.178;20.992;2022-10-31T00:09:00;19.20;;;11.90;;
56820;SDS011;42702;50.178;20.992;2022-10-31T00:11:30;19.40;;;11.70;;
56820;SDS011;42702;50.178;20.992;2022-10-31T00:13:59;19.40;;;11.60;;
56820;SDS011;42702;50.178;20.992;2022-10-31T00:16:28;21.70;;;12.60;;
56820;SDS011;42702;50.178;20.992;2022-10-31T00:18:58;16.30;;;11.80;;
56820;SDS011;42702;50.178;20.992;2022-10-31T00:21:28;18.30;;;11.70;;
56820;SDS011;42702;50.178;20.992;2022-10-31T00:23:57;19.70;;;12.40;;
56820;SDS011;42702;50.178;20.992;2022-10-31T00:26:27;20.10;;;13.00;;
56820;SDS011;42702;50.178;20.992;2022-10-31T00:28:56;21.60;;;13.30;;
56820;SDS011;42702;50.178;20.992;2022-10-31T00:31:27;23.00;;;13.70;;
56820;SDS011;42702;50.178;20.992;2022-10-31T00:33:57;29.40;;;13.30;;
56820;SDS011;42702;50.178;20.992;2022-10-31T00:36:26;25.20;;;14.80;;
56820;SDS011;42702;50.178;20.992;2022-10-31T00:38:54;27.90;;;15.20;;
56820;SDS011;42702;50.178;20.992;2022-10-31T00:41:24;24.60;;;13.90;;
56820;SDS011;42702;50.178;20.992;2022-10-31T00:43:52;23.10;;;12.40;;
56820;SDS011;42702;50.178;20.992;2022-10-31T00:46:20;21.70;;;12.30;;
56820;SDS011;42702;50.178;20.992;2022-10-31T00:48:51;23.10;;;12.20;;
56820;SDS011;42702;50.178;20.992;2022-10-31T00:51:19;20.20;;;12.30;;
56820;SDS011;42702;50.178;20.992;2022-10-31T00:53:48;22.00;;;12.90;;
56820;SDS011;42702;50.178;20.992;2022-10-31T00:56:16;22.80;;;11.50;;
56820;SDS011;42702;50.178;20.992;2022-10-31T00:58:44;17.20;;;10.60;;
56820;SDS011;42702;50.178;20.992;2022-10-31T01:01:12;17.50;;;11.80;;
56820;SDS011;42702;50.178;20.992;2022-10-31T01:03:40;22.50;;;11.60;;
56820;SDS011;42702;50.178;20.992;2022-10-31T01:06:12;21.40;;;12.30;;
56820;SDS011;42702;50.178;20.992;2022-10-31T01:08:41;18.50;;;12.00;;
56820;SDS011;42702;50.178;20.992;2022-10-31T01:11:14;22.60;;;12.80;;
56820;SDS011;42702;50.178;20.992;2022-10-31T01:13:45;20.60;;;12.30;;
56820;SDS011;42702;50.178;20.992;2022-10-31T01:16:15;18.70;;;10.50;;
56820;SDS011;42702;50.178;20.992;2022-10-31T01:18:45;20.50;;;11.20;;
56820;SDS011;42702;50.178;20.992;2022-10-31T01:21:15;15.80;;;11.10;;
56820;SDS011;42702;50.178;20.992;2022-10-31T01:23:44;17.30;;;10.40;;
56820;SDS011;42702;50.178;20.992;2022-10-31T01:26:18;20.30;;;10.80;;
56820;SDS011;42702;50.178;20.992;2022-10-31T01:28:58;19.10;;;10.80;;
56820;SDS011;42702;50.178;20.992;2022-10-31T01:31:30;18.30;;;10.90;;
56820;SDS011;42702;50.178;20.992;2022-10-31T01:34:04;20.00;;;11.40;;
56820;SDS011;42702;50.178;20.992;2022-10-31T01:36:34;22.60;;;11.20;;
56820;SDS011;42702;50.178;20.992;2022-10-31T01:39:04;19.10;;;10.50;;
56820;SDS011;42702;50.178;20.992;2022-10-31T01:41:36;17.20;;;10.10;;
56820;SDS011;42702;50.178;20.992;2022-10-31T01:52:14;17.50;;;10.10;;
56820;SDS011;42702;50.178;20.992;2022-10-31T01:55:00;15.40;;;9.20;;
56820;SDS011;42702;50.178;20.992;2022-10-31T01:57:29;20.90;;;9.60;;
56820;SDS011;42702;50.178;20.992;2022-10-31T02:00:01;14.30;;;9.20;;
56820;SDS011;42702;50.178;20.992;2022-10-31T02:02:40;18.50;;;10.10;;
56820;SDS011;42702;50.178;20.992;2022-10-31T02:05:11;19.00;;;9.30;;
56820;SDS011;42702;50.178;20.992;2022-10-31T02:10:33;17.80;;;11.00;;
56820;SDS011;42702;50.178;20.992;2022-10-31T02:13:05;13.90;;;10.40;;
56820;SDS011;42702;50.178;20.992;2022-10-31T02:15:40;16.90;;;10.10;;
56820;SDS011;42702;50.178;20.992;2022-10-31T02:18:11;17.10;;;10.20;;
56820;SDS011;42702;50.178;20.992;2022-10-31T02:34:23;21.10;;;10.40;;
56820;SDS011;42702;50.178;20.992;2022-10-31T02:37:02;15.30;;;10.20;;
56820;SDS011;42702;50.178;20.992;2022-10-31T02:42:59;20.70;;;10.80;;
56820;SDS011;42702;50.178;20.992;2022-10-31T02:45:48;18.80;;;11.30;;
56820;SDS011;42702;50.178;20.992;2022-10-31T02:48:19;26.20;;;11.50;;
56820;SDS011;42702;50.178;20.992;2022-10-31T02:50:55;20.80;;;11.50;;
56820;SDS011;42702;50.178;20.992;2022-10-31T02:53:26;16.20;;;10.70;;
56820;SDS011;42702;50.178;20.992;2022-10-31T02:58:47;17.30;;;9.10;;
56820;SDS011;42702;50.178;20.992;2022-10-31T03:01:33;15.90;;;10.20;;
56820;SDS011;42702;50.178;20.992;2022-10-31T03:07:23;23.80;;;10.30;;
56820;SDS011;42702;50.178;20.992;2022-10-31T03:18:48;15.60;;;9.80;;
56820;SDS011;42702;50.178;20.992;2022-10-31T03:21:29;17.70;;;9.30;;
56820;SDS011;42702;50.178;20.992;2022-10-31T03:23:59;16.00;;;9.40;;
56820;SDS011;42702;50.178;20.992;2022-10-31T03:26:29;15.20;;;8.80;;
56820;SDS011;42702;50.178;20.992;2022-10-31T03:29:02;11.40;;;8.90;;
56820;SDS011;42702;50.178;20.992;2022-10-31T03:31:37;15.30;;;10.00;;
56820;SDS011;42702;50.178;20.992;2022-10-31T03:34:10;15.90;;;8.60;;
56820;SDS011;42702;50.178;20.992;2022-10-31T03:36:40;12.90;;;9.00;;
56820;SDS011;42702;50.178;20.992;2022-10-31T03:39:11;14.20;;;9.00;;
56820;SDS011;42702;50.178;20.992;2022-10-31T03:41:45;16.30;;;8.90;;
56820;SDS011;42702;50.178;20.992;2022-10-31T03:44:18;18.70;;;8.40;;
56820;SDS011;42702;50.178;20.992;2022-10-31T03:46:56;15.50;;;9.60;;
56820;SDS011;42702;50.178;20.992;2022-10-31T03:49:24;14.60;;;8.70;;
56820;SDS011;42702;50.178;20.992;2022-10-31T03:54:51;13.00;;;8.50;;
56820;SDS011;42702;50.178;20.992;2022-10-31T03:57:28;13.00;;;8.40;;
56820;SDS011;42702;50.178;20.992;2022-10-31T04:00:05;15.60;;;8.80;;
56820;SDS011;42702;50.178;20.992;2022-10-31T04:03:06;16.40;;;8.50;;
56820;SDS011;42702;50.178;20.992;2022-10-31T04:05:40;12.80;;;8.60;;
56820;SDS011;42702;50.178;20.992;2022-10-31T04:08:15;14.90;;;8.60;;
56820;SDS011;42702;50.178;20.992;2022-10-31T04:10:48;13.00;;;7.90;;
56820;SDS011;42702;50.178;20.992;2022-10-31T04:13:20;11.50;;;8.20;;
56820;SDS011;42702;50.178;20.992;2022-10-31T04:16:01;15.00;;;9.30;;
56820;SDS011;42702;50.178;20.992;2022-10-31T04:18:30;13.90;;;7.40;;
56820;SDS011;42702;50.178;20.992;2022-10-31T04:21:02;13.60;;;8.50;;
56820;SDS011;42702;50.178;20.992;2022-10-31T04:23:35;12.20;;;8.00;;
56820;SDS011;42702;50.178;20.992;2022-10-31T04:26:10;12.30;;;7.90;;
56820;SDS011;42702;50.178;20.992;2022-10-31T04:28:39;10.00;;;7.20;;
56820;SDS011;42702;50.178;20.992;2022-10-31T04:31:08;11.40;;;7.50;;
56820;SDS011;42702;50.178;20.992;2022-10-31T04:33:38;9.80;;;7.20;;
56820;SDS011;42702;50.178;20.992;2022-10-31T04:36:07;10.90;;;7.50;;
56820;SDS011;42702;50.178;20.992;2022-10-31T04:38:35;11.40;;;7.40;;
56820;SDS011;42702;50.178;20.992;2022-10-31T04:41:09;11.70;;;7.00;;
56820;SDS011;42702;50.178;20.992;2022-10-31T04:43:52;15.40;;;7.70;;
56820;SDS011;42702;50.178;20.992;2022-10-31T04:46:21;11.10;;;7.50;;
56820;SDS011;42702;50.178;20.992;2022-10-31T04:48:49;12.20;;;8.10;;
56820;SDS011;42702;50.178;20.992;2022-10-31T04:51:17;13.90;;;8.20;;
56820;SDS011;42702;50.178;20.992;2022-10-31T04:53:45;12.80;;;7.50;;
56820;SDS011;42702;50.178;20.992;2022-10-31T04:56:32;16.80;;;7.50;;
56820;SDS011;42702;50.178;20.992;2022-10-31T04:59:04;11.00;;;7.50;;
56820;SDS011;42702;50.178;20.992;2022-10-31T05:01:45;13.80;;;6.80;;
56820;SDS011;42702;50.178;20.992;2022-10-31T05:04:13;12.70;;;8.20;;
56820;SDS011;42702;50.178;20.992;2022-10-31T05:06:41;11.70;;;7.30;;
56820;SDS011;42702;50.178;20.992;2022-10-31T05:09:09;13.10;;;8.00;;
56820;SDS011;42702;50.178;20.992;2022-10-31T05:11:38;14.90;;;8.70;;
56820;SDS011;42702;50.178;20.992;2022-10-31T05:14:23;12.50;;;8.10;;
56820;SDS011;42702;50.178;20.992;2022-10-31T05:17:12;11.40;;;7.20;;
56820;SDS011;42702;50.178;20.992;2022-10-31T05:20:09;14.10;;;7.90;;
56820;SDS011;42702;50.178;20.992;2022-10-31T05:22:59;11.30;;;7.90;;
56820;SDS011;42702;50.178;20.992;2022-10-31T05:25:27;12.90;;;8.40;;
56820;SDS011;42702;50.178;20.992;2022-10-31T05:27:56;14.70;;;9.20;;
56820;SDS011;42702;50.178;20.992;2022-10-31T05:30:27;22.20;;;11.30;;
56820;SDS011;42702;50.178;20.992;2022-10-31T05:35:45;13.70;;;8.60;;
56820;SDS011;42702;50.178;20.992;2022-10-31T05:38:22;13.90;;;8.90;;
56820;SDS011;42702;50.178;20.992;2022-10-31T05:40:53;12.20;;;8.00;;
56820;SDS011;42702;50.178;20.992;2022-10-31T05:43:25;11.90;;;7.50;;
56820;SDS011;42702;50.178;20.992;2022-10-31T05:45:54;11.80;;;6.90;;
56820;SDS011;42702;50.178;20.992;2022-10-31T05:48:42;15.20;;;7.40;;
56820;SDS011;42702;50.178;20.992;2022-10-31T05:51:28;16.70;;;8.10;;
56820;SDS011;42702;50.178;20.992;2022-10-31T05:53:56;11.90;;;7.60;;
56820;SDS011;42702;50.178;20.992;2022-10-31T05:56:25;15.20;;;8.90;;
56820;SDS011;42702;50.178;20.992;2022-10-31T05:58:53;17.30;;;9.10;;
56820;SDS011;42702;50.178;20.992;2022-10-31T06:01:21;14.00;;;8.50;;
56820;SDS011;42702;50.178;20.992;2022-10-31T06:03:49;14.70;;;9.20;;
56820;SDS011;42702;50.178;20.992;2022-10-31T06:06:20;15.00;;;8.80;;
56820;SDS011;42702;50.178;20.992;2022-10-31T06:08:48;14.60;;;7.90;;
56820;SDS011;42702;50.178;20.992;2022-10-31T06:11:20;10.60;;;7.10;;
56820;SDS011;42702;50.178;20.992;2022-10-31T06:14:03;15.30;;;8.30;;
56820;SDS011;42702;50.178;20.992;2022-10-31T06:16:43;15.90;;;8.00;;
56820;SDS011;42702;50.178;20.992;2022-10-31T06:19:34;12.30;;;7.50;;
56820;SDS011;42702;50.178;20.992;2022-10-31T06:22:02;19.90;;;8.40;;
56820;SDS011;42702;50.178;20.992;2022-10-31T06:24:32;13.30;;;8.50;;
56820;SDS011;42702;50.178;20.992;2022-10-31T06:27:05;17.10;;;8.70;;
56820;SDS011;42702;50.178;20.992;2022-10-31T06:29:33;19.80;;;8.10;;
56820;SDS011;42702;50.178;20.992;2022-10-31T06:32:04;18.10;;;8.30;;
56820;SDS011;42702;50.178;20.992;2022-10-31T06:34:38;21.30;;;8.40;;
56820;SDS011;42702;50.178;20.992;2022-10-31T06:37:08;18.60;;;8.00;;
56820;SDS011;42702;50.178;20.992;2022-10-31T06:39:38;9.60;;;7.00;;
56820;SDS011;42702;50.178;20.992;2022-10-31T06:42:08;14.60;;;7.60;;
56820;SDS011;42702;50.178;20.992;2022-10-31T06:44:37;10.00;;;7.30;;
56820;SDS011;42702;50.178;20.992;2022-10-31T06:47:49;13.90;;;7.40;;
56820;SDS011;42702;50.178;20.992;2022-10-31T06:50:45;14.90;;;9.40;;
56820;SDS011;42702;50.178;20.992;2022-10-31T06:53:13;13.30;;;8.90;;
56820;SDS011;42702;50.178;20.992;2022-10-31T06:55:42;15.30;;;8.80;;
56820;SDS011;42702;50.178;20.992;2022-10-31T06:58:10;13.60;;;9.20;;
56820;SDS011;42702;50.178;20.992;2022-10-31T07:00:39;19.70;;;9.10;;
56820;SDS011;42702;50.178;20.992;2022-10-31T07:03:12;20.60;;;9.60;;
56820;SDS011;42702;50.178;20.992;2022-10-31T07:05:42;15.30;;;9.00;;
56820;SDS011;42702;50.178;20.992;2022-10-31T07:08:11;17.30;;;8.30;;
56820;SDS011;42702;50.178;20.992;2022-10-31T07:10:41;17.20;;;9.80;;
56820;SDS011;42702;50.178;20.992;2022-10-31T07:13:12;15.60;;;8.90;;
56820;SDS011;42702;50.178;20.992;2022-10-31T07:15:46;14.60;;;8.60;;
56820;SDS011;42702;50.178;20.992;2022-10-31T07:18:15;17.20;;;9.90;;
56820;SDS011;42702;50.178;20.992;2022-10-31T07:20:43;17.60;;;9.50;;
56820;SDS011;42702;50.178;20.992;2022-10-31T07:23:12;18.10;;;10.50;;
56820;SDS011;42702;50.178;20.992;2022-10-31T07:25:42;19.90;;;9.80;;
56820;SDS011;42702;50.178;20.992;2022-10-31T07:28:16;19.30;;;11.00;;
56820;SDS011;42702;50.178;20.992;2022-10-31T07:30:49;15.70;;;10.30;;
56820;SDS011;42702;50.178;20.992;2022-10-31T07:33:19;22.00;;;11.60;;
56820;SDS011;42702;50.178;20.992;2022-10-31T07:36:14;22.50;;;12.20;;
56820;SDS011;42702;50.178;20.992;2022-10-31T07:38:44;21.80;;;13.10;;
56820;SDS011;42702;50.178;20.992;2022-10-31T07:41:13;24.70;;;13.00;;
56820;SDS011;42702;50.178;20.992;2022-10-31T07:43:43;25.40;;;13.50;;
56820;SDS011;42702;50.178;20.992;2022-10-31T07:46:18;26.20;;;14.70;;
56820;SDS011;42702;50.178;20.992;2022-10-31T07:49:04;27.20;;;14.10;;
56820;SDS011;42702;50.178;20.992;2022-10-31T07:51:51;24.20;;;14.40;;
56820;SDS011;42702;50.178;20.992;2022-10-31T07:54:38;26.90;;;14.10;;
56820;SDS011;42702;50.178;20.992;2022-10-31T07:57:09;23.40;;;15.10;;
56820;SDS011;42702;50.178;20.992;2022-10-31T07:59:39;25.80;;;14.20;;
56820;SDS011;42702;50.178;20.992;2022-10-31T08:02:08;27.40;;;15.40;;
56820;SDS011;42702;50.178;20.992;2022-10-31T08:04:48;23.50;;;15.20;;
56820;SDS011;42702;50.178;20.992;2022-10-31T08:07:29;26.40;;;14.10;;
56820;SDS011;42702;50.178;20.992;2022-10-31T08:10:00;24.70;;;14.10;;
56820;SDS011;42702;50.178;20.992;2022-10-31T08:12:30;25.90;;;14.90;;
56820;SDS011;42702;50.178;20.992;2022-10-31T08:14:59;25.20;;;14.40;;
56820;SDS011;42702;50.178;20.992;2022-10-31T08:17:27;22.50;;;14.60;;
56820;SDS011;42702;50.178;20.992;2022-10-31T08:19:59;25.30;;;14.30;;
56820;SDS011;42702;50.178;20.992;2022-10-31T08:24:59;26.60;;;14.80;;
56820;SDS011;42702;50.178;20.992;2022-10-31T08:27:28;22.30;;;14.00;;
56820;SDS011;42702;50.178;20.992;2022-10-31T08:29:58;21.90;;;14.00;;
56820;SDS011;42702;50.178;20.992;2022-10-31T08:32:26;21.50;;;13.60;;
56820;SDS011;42702;50.178;20.992;2022-10-31T08:34:57;23.60;;;13.90;;
56820;SDS011;42702;50.178;20.992;2022-10-31T08:37:29;23.60;;;14.10;;
56820;SDS011;42702;50.178;20.992;2022-10-31T08:39:57;25.10;;;14.20;;
56820;SDS011;42702;50.178;20.992;2022-10-31T08:42:25;25.30;;;14.10;;
56820;SDS011;42702;50.178;20.992;2022-10-31T08:44:53;27.40;;;15.30;;
56820;SDS011;42702;50.178;20.992;2022-10-31T08:47:22;26.10;;;15.00;;
56820;SDS011;42702;50.178;20.992;2022-10-31T08:49:50;27.10;;;15.00;;
56820;SDS011;42702;50.178;20.992;2022-10-31T08:52:18;27.10;;;13.30;;
56820;SDS011;42702;50.178;20.992;2022-10-31T08:54:48;24.20;;;14.10;;
56820;SDS011;42702;50.178;20.992;2022-10-31T08:57:39;21.20;;;13.90;;
56820;SDS011;42702;50.178;20.992;2022-10-31T09:00:07;29.40;;;14.50;;
56820;SDS011;42702;50.178;20.992;2022-10-31T09:02:42;27.90;;;14.40;;
56820;SDS011;42702;50.178;20.992;2022-10-31T09:05:10;21.40;;;13.80;;
56820;SDS011;42702;50.178;20.992;2022-10-31T09:07:38;23.10;;;13.20;;
56820;SDS011;42702;50.178;20.992;2022-10-31T09:10:07;30.80;;;14.60;;
56820;SDS011;42702;50.178;20.992;2022-10-31T09:12:36;25.70;;;14.80;;
56820;SDS011;42702;50.178;20.992;2022-10-31T09:15:23;30.50;;;14.10;;
56820;SDS011;42702;50.178;20.992;2022-10-31T09:18:15;27.10;;;14.80;;
56820;SDS011;42702;50.178;20.992;2022-10-31T09:23:41;24.70;;;13.30;;
56820;SDS011;42702;50.178;20.992;2022-10-31T09:26:09;29.90;;;13.30;;
56820;SDS011;42702;50.178;20.992;2022-10-31T09:28:41;22.30;;;12.70;;
56820;SDS011;42702;50.178;20.992;2022-10-31T09:31:11;19.70;;;13.00;;
56820;SDS011;42702;50.178;20.992;2022-10-31T09:33:49;26.40;;;14.10;;
56820;SDS011;42702;50.178;20.992;2022-10-31T09:36:43;27.00;;;13.80;;
56820;SDS011;42702;50.178;20.992;2022-10-31T09:39:14;23.50;;;12.80;;
56820;SDS011;42702;50.178;20.992;2022-10-31T09:41:53;19.90;;;12.90;;
56820;SDS011;42702;50.178;20.992;2022-10-31T09:44:52;25.10;;;13.00;;
56820;SDS011;42702;50.178;20.992;2022-10-31T09:48:01;25.80;;;14.20;;
56820;SDS011;42702;50.178;20.992;2022-10-31T09:56:05;24.50;;;12.90;;
56820;SDS011;42702;50.178;20.992;2022-10-31T09:58:55;21.90;;;12.60;;
56820;SDS011;42702;50.178;20.992;2022-10-31T10:04:10;22.30;;;13.00;;
56820;SDS011;42702;50.178;20.992;2022-10-31T10:06:58;23.20;;;13.70;;
56820;SDS011;42702;50.178;20.992;2022-10-31T10:09:45;24.50;;;13.10;;
56820;SDS011;42702;50.178;20.992;2022-10-31T10:18:11;25.60;;;13.80;;
56820;SDS011;42702;50.178;20.992;2022-10-31T10:24:03;20.30;;;11.60;;
56820;SDS011;42702;50.178;20.992;2022-10-31T10:29:33;24.90;;;13.50;;
56820;SDS011;42702;50.178;20.992;2022-10-31T10:32:10;29.00;;;15.90;;
56820;SDS011;42702;50.178;20.992;2022-10-31T10:34:47;31.90;;;15.80;;
56820;SDS011;42702;50.178;20.992;2022-10-31T10:37:33;27.00;;;14.60;;
56820;SDS011;42702;50.178;20.992;2022-10-31T10:40:27;24.00;;;14.60;;
56820;SDS011;42702;50.178;20.992;2022-10-31T10:43:12;23.60;;;14.20;;
56820;SDS011;42702;50.178;20.992;2022-10-31T10:46:12;27.80;;;15.20;;
56820;SDS011;42702;50.178;20.992;2022-10-31T10:49:15;26.10;;;14.10;;
56820;SDS011;42702;50.178;20.992;2022-10-31T10:51:45;32.30;;;15.00;;
56820;SDS011;42702;50.178;20.992;2022-10-31T11:00:22;25.10;;;14.80;;
56820;SDS011;42702;50.178;20.992;2022-10-31T11:02:52;27.20;;;15.40;;
56820;SDS011;42702;50.178;20.992;2022-10-31T11:07:52;25.40;;;13.90;;
56820;SDS011;42702;50.178;20.992;2022-10-31T11:10:20;28.50;;;14.50;;
56820;SDS011;42702;50.178;20.992;2022-10-31T11:13:00;27.00;;;14.10;;
56820;SDS011;42702;50.178;20.992;2022-10-31T11:15:33;29.40;;;14.50;;
56820;SDS011;42702;50.178;20.992;2022-10-31T11:18:05;21.00;;;12.50;;
56820;SDS011;42702;50.178;20.992;2022-10-31T11:20:40;29.00;;;13.70;;
56820;SDS011;42702;50.178;20.992;2022-10-31T11:23:18;26.80;;;13.10;;
56820;SDS011;42702;50.178;20.992;2022-10-31T11:25:48;24.40;;;13.50;;
56820;SDS011;42702;50.178;20.992;2022-10-31T11:28:30;25.00;;;13.90;;
56820;SDS011;42702;50.178;20.992;2022-10-31T11:31:06;25.50;;;13.10;;
56820;SDS011;42702;50.178;20.992;2022-10-31T11:33:40;25.10;;;13.70;;
56820;SDS011;42702;50.178;20.992;2022-10-31T11:36:24;22.60;;;13.20;;
56820;SDS011;42702;50.178;20.992;2022-10-31T11:38:57;24.30;;;14.60;;
56820;SDS011;42702;50.178;20.992;2022-10-31T11:41:32;23.10;;;12.40;;
56820;SDS011;42702;50.178;20.992;2022-10-31T11:44:13;23.70;;;13.30;;
56820;SDS011;42702;50.178;20.992;2022-10-31T11:46:51;22.30;;;13.30;;
56820;SDS011;42702;50.178;20.992;2022-10-31T11:54:53;27.60;;;13.80;;
56820;SDS011;42702;50.178;20.992;2022-10-31T12:00:19;27.30;;;13.80;;
56820;SDS011;42702;50.178;20.992;2022-10-31T12:08:48;26.10;;;13.80;;
56820;SDS011;42702;50.178;20.992;2022-10-31T12:17:21;23.00;;;12.10;;
56820;SDS011;42702;50.178;20.992;2022-10-31T12:20:04;24.30;;;12.80;;
56820;SDS011;42702;50.178;20.992;2022-10-31T12:32:00;22.30;;;13.00;;
56820;SDS011;42702;50.178;20.992;2022-10-31T12:48:17;22.80;;;12.10;;
56820;SDS011;42702;50.178;20.992;2022-10-31T12:50:51;22.90;;;12.40;;
56820;SDS011;42702;50.178;20.992;2022-10-31T12:56:21;17.80;;;10.50;;
56820;SDS011;42702;50.178;20.992;2022-10-31T12:59:44;20.00;;;10.60;;
56820;SDS011;42702;50.178;20.992;2022-10-31T13:08:16;21.10;;;10.80;;
56820;SDS011;42702;50.178;20.992;2022-10-31T13:10:26;19.00;;;10.30;;
56820;SDS011;42702;50.178;20.992;2022-10-31T13:13:06;14.20;;;9.50;;
56820;SDS011;42702;50.178;20.992;2022-10-31T13:15:47;19.10;;;10.00;;
56820;SDS011;42702;50.178;20.992;2022-10-31T13:18:25;15.90;;;9.00;;
56820;SDS011;42702;50.178;20.992;2022-10-31T13:20:58;21.40;;;10.30;;
56820;SDS011;42702;50.178;20.992;2022-10-31T13:23:31;22.30;;;10.40;;
56820;SDS011;42702;50.178;20.992;2022-10-31T13:26:21;24.20;;;10.30;;
56820;SDS011;42702;50.178;20.992;2022-10-31T13:29:06;16.50;;;10.30;;
56820;SDS011;42702;50.178;20.992;2022-10-31T13:31:42;22.10;;;10.40;;
56820;SDS011;42702;50.178;20.992;2022-10-31T13:34:24;18.90;;;10.00;;
56820;SDS011;42702;50.178;20.992;2022-10-31T13:37:27;23.40;;;11.90;;
56820;SDS011;42702;50.178;20.992;2022-10-31T13:40:06;21.50;;;10.40;;
56820;SDS011;42702;50.178;20.992;2022-10-31T13:46:02;23.30;;;11.50;;
56820;SDS011;42702;50.178;20.992;2022-10-31T13:48:53;22.20;;;10.50;;
56820;SDS011;42702;50.178;20.992;2022-10-31T13:51:26;20.00;;;10.80;;
56820;SDS011;42702;50.178;20.992;2022-10-31T13:56:51;26.30;;;11.80;;
56820;SDS011;42702;50.178;20.992;2022-10-31T13:59:21;28.70;;;11.40;;
56820;SDS011;42702;50.178;20.992;2022-10-31T14:01:58;23.20;;;10.20;;
56820;SDS011;42702;50.178;20.992;2022-10-31T14:04:36;15.40;;;10.30;;
56820;SDS011;42702;50.178;20.992;2022-10-31T14:07:14;26.30;;;11.50;;
56820;SDS011;42702;50.178;20.992;2022-10-31T14:09:55;22.80;;;11.50;;
56820;SDS011;42702;50.178;20.992;2022-10-31T14:12:39;18.20;;;10.10;;
56820;SDS011;42702;50.178;20.992;2022-10-31T14:15:18;20.90;;;10.60;;
56820;SDS011;42702;50.178;20.992;2022-10-31T14:17:59;23.90;;;10.40;;
56820;SDS011;42702;50.178;20.992;2022-10-31T14:20:40;23.30;;;10.80;;
56820;SDS011;42702;50.178;20.992;2022-10-31T14:23:10;24.90;;;10.20;;
56820;SDS011;42702;50.178;20.992;2022-10-31T14:25:40;23.20;;;10.30;;
56820;SDS011;42702;50.178;20.992;2022-10-31T14:28:18;20.30;;;10.70;;
56820;SDS011;42702;50.178;20.992;2022-10-31T14:30:54;18.20;;;8.90;;
56820;SDS011;42702;50.178;20.992;2022-10-31T14:33:25;32.50;;;12.40;;
56820;SDS011;42702;50.178;20.992;2022-10-31T14:36:11;31.80;;;12.40;;
56820;SDS011;42702;50.178;20.992;2022-10-31T14:38:53;33.90;;;12.50;;
56820;SDS011;42702;50.178;20.992;2022-10-31T14:44:59;25.30;;;11.70;;
56820;SDS011;42702;50.178;20.992;2022-10-31T14:52:37;29.20;;;12.80;;
56820;SDS011;42702;50.178;20.992;2022-10-31T14:55:10;26.10;;;13.10;;
56820;SDS011;42702;50.178;20.992;2022-10-31T14:57:44;32.20;;;12.90;;
56820;SDS011;42702;50.178;20.992;2022-10-31T15:00:18;23.70;;;12.20;;
56820;SDS011;42702;50.178;20.992;2022-10-31T15:02:58;19.10;;;11.60;;
56820;SDS011;42702;50.178;20.992;2022-10-31T15:05:44;28.50;;;15.60;;
56820;SDS011;42702;50.178;20.992;2022-10-31T15:08:40;24.30;;;12.80;;
56820;SDS011;42702;50.178;20.992;2022-10-31T15:11:26;26.00;;;13.50;;
56820;SDS011;42702;50.178;20.992;2022-10-31T15:13:55;25.40;;;14.20;;
56820;SDS011;42702;50.178;20.992;2022-10-31T15:16:32;32.70;;;15.70;;
56820;SDS011;42702;50.178;20.992;2022-10-31T15:19:07;37.40;;;14.50;;
56820;SDS011;42702;50.178;20.992;2022-10-31T15:24:10;38.90;;;14.30;;
56820;SDS011;42702;50.178;20.992;2022-10-31T15:26:43;36.00;;;15.60;;
56820;SDS011;42702;50.178;20.992;2022-10-31T15:29:24;25.10;;;15.80;;
56820;SDS011;42702;50.178;20.992;2022-10-31T15:31:54;74.60;;;32.60;;
56820;SDS011;42702;50.178;20.992;2022-10-31T15:34:40;269.90;;;118.00;;
56820;SDS011;42702;50.178;20.992;2022-10-31T15:37:10;287.70;;;126.90;;
56820;SDS011;42702;50.178;20.992;2022-10-31T15:39:41;261.40;;;118.30;;
56820;SDS011;42702;50.178;20.992;2022-10-31T15:42:18;170.70;;;75.90;;
56820;SDS011;42702;50.178;20.992;2022-10-31T15:45:24;148.10;;;67.60;;
56820;SDS011;42702;50.178;20.992;2022-10-31T15:47:56;134.00;;;62.50;;
56820;SDS011;42702;50.178;20.992;2022-10-31T15:50:38;106.30;;;51.20;;
56820;SDS011;42702;50.178;20.992;2022-10-31T15:53:14;91.90;;;42.70;;
56820;SDS011;42702;50.178;20.992;2022-10-31T15:55:54;77.70;;;36.30;;
56820;SDS011;42702;50.178;20.992;2022-10-31T15:58:25;86.50;;;39.70;;
56820;SDS011;42702;50.178;20.992;2022-10-31T16:00:59;73.00;;;31.80;;
56820;SDS011;42702;50.178;20.992;2022-10-31T16:03:32;66.60;;;25.10;;
56820;SDS011;42702;50.178;20.992;2022-10-31T16:06:02;47.20;;;23.30;;
56820;SDS011;42702;50.178;20.992;2022-10-31T16:08:33;47.40;;;21.50;;
56820;SDS011;42702;50.178;20.992;2022-10-31T16:13:35;48.40;;;21.80;;
56820;SDS011;42702;50.178;20.992;2022-10-31T16:16:12;45.00;;;22.90;;
56820;SDS011;42702;50.178;20.992;2022-10-31T16:19:03;41.00;;;22.00;;
56820;SDS011;42702;50.178;20.992;2022-10-31T16:21:34;46.80;;;23.40;;
56820;SDS011;42702;50.178;20.992;2022-10-31T16:24:05;46.50;;;23.70;;
56820;SDS011;42702;50.178;20.992;2022-10-31T16:26:47;42.30;;;23.70;;
56820;SDS011;42702;50.178;20.992;2022-10-31T16:29:51;49.00;;;24.90;;
56820;SDS011;42702;50.178;20.992;2022-10-31T16:34:58;44.70;;;25.70;;
56820;SDS011;42702;50.178;20.992;2022-10-31T16:37:26;41.30;;;25.60;;
56820;SDS011;42702;50.178;20.992;2022-10-31T16:39:54;50.50;;;27.30;;
56820;SDS011;42702;50.178;20.992;2022-10-31T16:42:22;50.60;;;28.70;;
56820;SDS011;42702;50.178;20.992;2022-10-31T16:44:50;56.50;;;34.30;;
56820;SDS011;42702;50.178;20.992;2022-10-31T16:47:18;71.40;;;36.70;;
56820;SDS011;42702;50.178;20.992;2022-10-31T16:49:51;66.60;;;34.90;;
56820;SDS011;42702;50.178;20.992;2022-10-31T16:52:19;65.00;;;34.20;;
56820;SDS011;42702;50.178;20.992;2022-10-31T16:54:47;70.00;;;34.40;;
56820;SDS011;42702;50.178;20.992;2022-10-31T16:57:16;59.40;;;32.10;;
56820;SDS011;42702;50.178;20.992;2022-10-31T16:59:48;60.20;;;31.20;;
56820;SDS011;42702;50.178;20.992;2022-10-31T17:02:21;85.20;;;41.70;;
56820;SDS011;42702;50.178;20.992;2022-10-31T17:04:49;85.80;;;45.60;;
56820;SDS011;42702;50.178;20.992;2022-10-31T17:07:23;201.50;;;116.90;;
56820;SDS011;42702;50.178;20.992;2022-10-31T17:09:57;187.20;;;94.90;;
56820;SDS011;42702;50.178;20.992;2022-10-31T17:12:26;117.30;;;59.90;;
56820;SDS011;42702;50.178;20.992;2022-10-31T17:14:54;85.30;;;45.40;;
56820;SDS011;42702;50.178;20.992;2022-10-31T17:17:23;65.30;;;35.90;;
56820;SDS011;42702;50.178;20.992;2022-10-31T17:19:51;64.20;;;33.60;;
56820;SDS011;42702;50.178;20.992;2022-10-31T17:22:19;67.40;;;31.80;;
56820;SDS011;42702;50.178;20.992;2022-10-31T17:24:47;67.10;;;34.70;;
56820;SDS011;42702;50.178;20.992;2022-10-31T17:27:15;59.40;;;32.80;;
56820;SDS011;42702;50.178;20.992;2022-10-31T17:29:43;57.00;;;30.50;;
56820;SDS011;42702;50.178;20.992;2022-10-31T17:32:11;55.60;;;30.30;;